Time;durP1;ratioP1;P1;durP2;ratioP2;P2;SDS_P1;SDS_P2;PMS_P1;PMS_P2;Temp;Humidity;BMP_temperature;BMP_pressure;BME280_temperature;BME280_humidity;BME280_pressure;Samples;Min_cycle;Max_cycle;Signal;HPM_P1;HPM_P2
2024/04/04 00:01:01;;;;;;;10.02;6.10;;;;;;;9.56;100.00;100441.66;6093959;23;20013;-73
2024/04/04 00:03:28;;;;;;;7.90;5.13;;;;;;;9.56;100.00;100447.81;6144754;23;20024;-72
2024/04/04 00:05:54;;;;;;;9.30;6.38;;;;;;;9.55;100.00;100448.88;6069521;23;20031;-76
2024/04/04 00:08:20;;;;;;;9.75;6.00;;;;;;;9.54;100.00;100444.59;6069238;23;20396;-75
2024/04/04 00:10:46;;;;;;;10.40;6.55;;;;;;;9.53;100.00;100445.66;6142553;23;20013;-75
2024/04/04 00:13:11;;;;;;;8.48;6.68;;;;;;;9.50;100.00;100456.91;6118648;23;20018;-73
2024/04/04 00:15:41;;;;;;;8.05;6.22;;;;;;;9.49;100.00;100447.28;6069675;23;20021;-73
2024/04/04 00:18:06;;;;;;;12.60;6.07;;;;;;;9.49;100.00;100447.28;6118275;23;20017;-73
2024/04/04 00:20:38;;;;;;;9.82;6.57;;;;;;;9.50;100.00;100448.88;6144321;23;20091;-73
2024/04/04 00:23:04;;;;;;;15.57;8.55;;;;;;;9.51;100.00;100441.66;6117729;23;20027;-74
2024/04/04 00:25:29;;;;;;;8.20;6.82;;;;;;;9.52;100.00;100449.41;6093978;23;20045;-73
2024/04/04 00:27:54;;;;;;;10.23;6.95;;;;;;;9.54;100.00;100454.47;6093451;23;20023;-73
2024/04/04 00:30:20;;;;;;;12.57;7.90;;;;;;;9.55;100.00;100456.09;6069015;23;20009;-72
2024/04/04 00:32:46;;;;;;;10.43;7.50;;;;;;;9.55;100.00;100451.56;6143767;23;20080;-73
2024/04/04 00:35:12;;;;;;;10.45;7.78;;;;;;;9.57;100.00;100449.41;6118108;23;20037;-72
2024/04/04 00:37:37;;;;;;;10.68;7.32;;;;;;;9.58;100.00;100459.03;6093608;23;20351;-73
2024/04/04 00:40:03;;;;;;;14.32;7.70;;;;;;;9.57;100.00;100452.09;6117967;23;20021;-72
2024/04/04 00:42:29;;;;;;;;;;;;;;;9.58;100.00;100448.34;6069820;23;20451;-73
2024/04/04 00:44:54;;;;;;;10.73;7.10;;;;;;;9.58;100.00;100450.22;6117330;23;19924;-71
2024/04/04 00:47:20;;;;;;;9.45;7.00;;;;;;;9.58;100.00;100461.72;6117569;23;20006;-73
2024/04/04 00:49:47;;;;;;;11.23;7.63;;;;;;;9.58;100.00;100467.06;6092606;23;20017;-72
2024/04/04 00:52:13;;;;;;;10.73;7.75;;;;;;;9.58;100.00;100466.25;6116906;23;20017;-73
2024/04/04 00:54:41;;;;;;;10.32;7.28;;;;;;;9.57;100.00;100460.09;6117520;23;20006;-72
2024/04/04 00:57:08;;;;;;;11.32;8.15;;;;;;;9.55;100.00;100451.56;6118354;23;20092;-72
2024/04/04 00:59:33;;;;;;;10.27;7.90;;;;;;;9.54;100.00;100455.28;6092881;23;20045;-72
2024/04/04 01:01:59;;;;;;;11.63;8.65;;;;;;;9.53;100.00;100461.69;6116756;23;20071;-71
2024/04/04 01:04:25;;;;;;;15.00;8.30;;;;;;;9.53;100.00;100464.38;6143412;23;20028;-72
2024/04/04 01:06:51;;;;;;;12.57;9.05;;;;;;;9.53;100.00;100467.06;6093114;23;20068;-72
2024/04/04 01:09:17;;;;;;;12.02;8.20;;;;;;;9.53;100.00;100472.41;6117936;23;20025;-72
2024/04/04 01:11:43;;;;;;;13.90;9.02;;;;;;;9.53;100.00;100475.06;6142818;23;20018;-72
2024/04/04 01:14:09;;;;;;;10.57;7.75;;;;;;;9.55;100.00;100472.13;6068418;23;20033;-73
2024/04/04 01:16:34;;;;;;;16.60;8.68;;;;;;;9.55;100.00;100466.78;6144318;23;20010;-72
2024/04/04 01:19:00;;;;;;;12.95;8.85;;;;;;;9.53;100.00;100468.94;6143442;23;20333;-72
2024/04/04 01:21:26;;;;;;;13.90;8.13;;;;;;;9.50;100.00;100470.28;6092913;23;20025;-72
2024/04/04 01:23:52;;;;;;;12.98;8.23;;;;;;;9.50;100.00;100475.63;6092580;23;20013;-72
2024/04/04 01:26:17;;;;;;;11.35;7.43;;;;;;;9.48;100.00;100466.25;6117396;23;20093;-72
2024/04/04 01:28:44;;;;;;;12.27;8.02;;;;;;;9.48;100.00;100472.44;6092961;23;20115;-73
2024/04/04 01:31:10;;;;;;;13.27;7.90;;;;;;;9.46;100.00;100469.19;6116980;23;20099;-73
2024/04/04 01:33:36;;;;;;;;;;;;;;;9.47;100.00;100470.78;6144422;23;20483;-72
2024/04/04 01:36:02;;;;;;;13.65;9.18;;;;;;;9.44;100.00;100465.19;6142064;23;20370;-73
2024/04/04 01:38:28;;;;;;;;;;;;;;;9.43;100.00;100474.28;6094010;23;20024;-72
2024/04/04 01:40:54;;;;;;;11.18;7.40;;;;;;;9.42;100.00;100473.50;6117242;23;20262;-72
2024/04/04 01:43:20;;;;;;;14.55;8.77;;;;;;;9.41;100.00;100469.19;6092997;23;20032;-72
2024/04/04 01:45:45;;;;;;;10.45;8.43;;;;;;;9.41;100.00;100466.53;6091905;23;20022;-72
2024/04/04 01:48:11;;;;;;;12.35;8.75;;;;;;;9.39;100.00;100462.53;6116663;23;20017;-72
2024/04/04 01:50:37;;;;;;;15.98;8.63;;;;;;;9.36;100.00;100466.53;6142855;23;20507;-72
2024/04/04 01:53:03;;;;;;;11.07;7.35;;;;;;;9.35;100.00;100467.63;6116001;23;20076;-72
2024/04/04 01:55:30;;;;;;;12.32;8.18;;;;;;;9.32;100.00;100462.78;6116399;23;20032;-74
2024/04/04 01:57:57;;;;;;;12.50;7.40;;;;;;;9.28;100.00;100467.88;6094892;23;20018;-73
2024/04/04 02:00:23;;;;;;;12.73;7.40;;;;;;;9.26;100.00;100463.84;6145449;23;20013;-73
2024/04/04 02:02:49;;;;;;;;;;;;;;;9.26;100.00;100464.66;6093330;23;20067;-73
2024/04/04 02:05:14;;;;;;;11.30;7.05;;;;;;;9.25;100.00;100457.72;6118284;23;20275;-73
2024/04/04 02:07:40;;;;;;;9.90;6.68;;;;;;;9.22;100.00;100455.59;6117497;23;20511;-73
2024/04/04 02:10:06;;;;;;;13.30;7.22;;;;;;;9.22;100.00;100457.47;6117013;23;20439;-74
2024/04/04 02:12:31;;;;;;;15.05;6.38;;;;;;;9.19;100.00;100449.97;6118289;23;20459;-74
2024/04/04 02:14:57;;;;;;;12.27;6.85;;;;;;;9.17;100.00;100460.13;6094739;23;20067;-73
2024/04/04 02:17:23;;;;;;;10.10;6.38;;;;;;;9.15;100.00;100454.25;6120847;23;20476;-73
2024/04/04 02:19:49;;;;;;;13.75;7.30;;;;;;;9.12;100.00;100452.09;6146395;23;20013;-72
2024/04/04 02:22:16;;;;;;;12.52;6.35;;;;;;;9.12;100.00;100458.25;6121182;23;20029;-74
2024/04/04 02:24:42;;;;;;;12.10;6.10;;;;;;;9.13;100.00;100456.38;6121329;23;20025;-73
2024/04/04 02:27:08;;;;;;;12.68;5.88;;;;;;;9.11;100.00;100458.53;6119551;23;20068;-73
2024/04/04 02:29:34;;;;;;;12.55;6.63;;;;;;;9.12;100.00;100452.91;6145634;23;20028;-75
2024/04/04 02:32:00;;;;;;;11.82;6.18;;;;;;;9.11;100.00;100453.16;6094871;23;20021;-74
2024/04/04 02:34:26;;;;;;;9.90;6.50;;;;;;;9.10;100.00;100454.25;6118700;23;20021;-73
2024/04/04 02:36:52;;;;;;;11.13;6.07;;;;;;;9.09;100.00;100453.44;6145782;23;20021;-74
2024/04/04 02:39:17;;;;;;;10.27;6.22;;;;;;;9.08;100.00;100451.84;6145511;23;20013;-73
2024/04/04 02:41:43;;;;;;;12.13;6.40;;;;;;;9.08;100.00;100456.38;6120153;23;20669;-73
2024/04/04 02:44:10;;;;;;;13.00;6.70;;;;;;;9.07;100.00;100449.41;6093648;23;20063;-73
2024/04/04 02:46:35;;;;;;;12.60;6.65;;;;;;;9.06;100.00;100445.94;6119042;23;20017;-73
2024/04/04 02:49:04;;;;;;;14.13;6.32;;;;;;;9.06;100.00;100442.47;6094258;23;20401;-74
2024/04/04 02:51:32;;;;;;;12.68;6.47;;;;;;;9.07;100.00;100452.88;6095427;23;20471;-74
2024/04/04 02:53:59;;;;;;;12.98;6.28;;;;;;;9.06;100.00;100453.97;6094573;23;20021;-73
2024/04/04 02:56:25;;;;;;;11.00;5.78;;;;;;;9.06;100.00;100450.50;6118960;23;20009;-73
2024/04/04 02:58:50;;;;;;;10.07;5.95;;;;;;;9.05;100.00;100457.72;6095486;23;20013;-73
2024/04/04 03:01:16;;;;;;;8.43;5.20;;;;;;;9.06;100.00;100456.63;6118954;23;20021;-72
2024/04/04 03:03:44;;;;;;;10.68;5.45;;;;;;;9.03;100.00;100447.28;6118721;23;20088;-73
2024/04/04 03:06:11;;;;;;;13.63;5.60;;;;;;;9.03;100.00;100460.66;6144939;23;20103;-74
2024/04/04 03:08:37;;;;;;;10.15;5.72;;;;;;;9.03;100.00;100454.50;6119068;23;20539;-73
2024/04/04 03:11:04;;;;;;;12.38;6.30;;;;;;;9.03;100.00;100454.50;6144492;23;20021;-73
2024/04/04 03:13:30;;;;;;;13.63;5.30;;;;;;;9.03;100.00;100459.84;6118835;23;20024;-73
2024/04/04 03:15:58;;;;;;;11.63;5.20;;;;;;;9.02;100.00;100459.06;6118264;23;20600;-73
2024/04/04 03:18:24;;;;;;;9.52;4.85;;;;;;;9.02;100.00;100460.91;6095109;23;20009;-73
2024/04/04 03:20:50;;;;;;;9.40;5.13;;;;;;;9.02;100.00;100452.91;6144313;23;20017;-73
2024/04/04 03:23:16;;;;;;;8.40;5.45;;;;;;;9.01;100.00;100457.44;6145800;23;20040;-73
2024/04/04 03:25:42;;;;;;;8.88;4.60;;;;;;;9.00;100.00;100455.81;6119406;23;20036;-72
2024/04/04 03:28:08;;;;;;;8.98;5.20;;;;;;;8.99;100.00;100448.88;6094702;23;20017;-74
2024/04/04 03:30:34;;;;;;;14.15;4.97;;;;;;;9.00;100.00;100445.13;6095245;23;20531;-73
2024/04/04 03:32:59;;;;;;;8.10;4.93;;;;;;;9.00;100.00;100444.34;6094239;23;20640;-72
2024/04/04 03:35:25;;;;;;;9.82;4.80;;;;;;;9.00;100.00;100450.47;6093692;23;20024;-72
2024/04/04 03:37:52;;;;;;;7.70;4.60;;;;;;;8.98;100.00;100441.94;6145456;23;20005;-74
2024/04/04 03:40:18;;;;;;;9.38;4.65;;;;;;;9.00;100.00;100444.34;6119537;23;20014;-74
2024/04/04 03:42:46;;;;;;;15.45;4.35;;;;;;;9.00;100.00;100439.00;6119914;23;20083;-75
2024/04/04 03:45:14;;;;;;;10.55;4.03;;;;;;;8.97;100.00;100437.66;6143942;23;20630;-74
2024/04/04 03:47:40;;;;;;;8.30;3.88;;;;;;;8.99;100.00;100429.38;6094951;23;20028;-74
2024/04/04 03:50:06;;;;;;;8.48;4.18;;;;;;;8.99;100.00;100445.41;6094266;23;20068;-74
2024/04/04 03:52:33;;;;;;;8.35;4.00;;;;;;;8.97;100.00;100443.00;6071732;23;20068;-75
2024/04/04 03:55:00;;;;;;;10.00;4.65;;;;;;;8.95;100.00;100436.34;6069555;23;20041;-75
2024/04/04 03:57:26;;;;;;;9.05;3.63;;;;;;;8.94;100.00;100432.88;6095373;23;20001;-74
2024/04/04 03:59:53;;;;;;;10.48;3.88;;;;;;;8.94;100.00;100434.72;6094760;23;20470;-74
2024/04/04 04:02:19;;;;;;;10.02;3.97;;;;;;;8.94;100.00;100429.38;6118695;23;20013;-74
2024/04/04 04:04:44;;;;;;;10.55;3.92;;;;;;;8.93;100.00;100449.13;6119061;23;20459;-73
2024/04/04 04:07:10;;;;;;;10.15;3.90;;;;;;;8.93;100.00;100443.81;6118449;23;20096;-73
2024/04/04 04:09:35;;;;;;;9.40;4.40;;;;;;;8.91;100.00;100440.59;6095669;23;20044;-73
2024/04/04 04:12:01;;;;;;;10.35;3.63;;;;;;;8.90;100.00;100444.34;6120494;23;20013;-74
2024/04/04 04:14:27;;;;;;;;;;;;;;;8.88;100.00;100447.28;6121440;23;20021;-75
2024/04/04 04:16:53;;;;;;;8.85;3.22;;;;;;;8.88;100.00;100444.63;6120627;23;19912;-73
2024/04/04 04:19:18;;;;;;;10.65;3.40;;;;;;;8.88;100.00;100451.81;6120407;23;20025;-72
2024/04/04 04:21:44;;;;;;;6.95;3.58;;;;;;;8.86;100.00;100448.59;6121227;23;20013;-73
2024/04/04 04:24:09;;;;;;;8.98;3.65;;;;;;;8.84;100.00;100450.75;6119766;23;20767;-75
2024/04/04 04:26:35;;;;;;;7.88;3.22;;;;;;;8.81;100.00;100454.75;6146853;23;20017;-74
2024/04/04 04:29:01;;;;;;;7.07;3.58;;;;;;;8.78;100.00;100447.25;6120499;23;20087;-73
2024/04/04 04:31:34;;;;;;;7.65;3.03;;;;;;;8.73;100.00;100453.38;6121136;23;20167;-73
2024/04/04 04:34:02;;;;;;;5.43;3.00;;;;;;;8.69;100.00;100448.84;6120359;23;20021;-74
2024/04/04 04:36:32;;;;;;;6.47;3.30;;;;;;;8.65;100.00;100453.91;6148450;23;20033;-74
2024/04/04 04:38:58;;;;;;;10.10;2.97;;;;;;;8.61;100.00;100452.84;6120841;23;20017;-73
2024/04/04 04:41:24;;;;;;;;;;;;;;;8.57;100.00;100453.63;6096709;23;20055;-72
2024/04/04 04:43:50;;;;;;;8.48;3.08;;;;;;;8.55;100.00;100459.22;6147555;23;19935;-72
2024/04/04 04:46:17;;;;;;;8.38;3.33;;;;;;;8.51;100.00;100449.34;6095615;23;20013;-75
2024/04/04 04:48:43;;;;;;;7.22;3.00;;;;;;;8.48;100.00;100453.34;6146782;23;20013;-73
2024/04/04 04:51:09;;;;;;;7.63;3.38;;;;;;;8.45;100.00;100454.66;6120077;23;20021;-75
2024/04/04 04:53:35;;;;;;;5.40;2.80;;;;;;;8.43;100.00;100462.13;6147647;23;20013;-76
2024/04/04 04:56:01;;;;;;;8.55;3.20;;;;;;;8.42;100.00;100454.38;6119248;23;20016;-75
2024/04/04 04:58:27;;;;;;;6.05;2.78;;;;;;;8.39;100.00;100455.69;6095695;23;20021;-75
2024/04/04 05:00:53;;;;;;;8.05;2.75;;;;;;;8.36;100.00;100450.88;6147305;23;20013;-73
2024/04/04 05:03:20;;;;;;;11.93;2.90;;;;;;;8.37;100.00;100457.03;6146179;23;20017;-73
2024/04/04 05:05:47;;;;;;;6.30;2.55;;;;;;;8.37;100.00;100463.16;6145857;23;20010;-73
2024/04/04 05:08:13;;;;;;;8.82;2.92;;;;;;;8.37;100.00;100462.38;6095077;23;20024;-75
2024/04/04 05:10:39;;;;;;;6.38;2.50;;;;;;;8.40;100.00;100456.50;6120222;23;20013;-74
2024/04/04 05:13:05;;;;;;;7.88;2.78;;;;;;;8.38;100.00;100451.41;6119655;23;20024;-74
2024/04/04 05:15:31;;;;;;;4.10;2.60;;;;;;;8.40;100.00;100446.66;6120587;23;20020;-72
2024/04/04 05:17:57;;;;;;;6.15;2.28;;;;;;;8.41;100.00;100442.91;6120268;23;20064;-75
2024/04/04 05:20:22;;;;;;;7.38;2.38;;;;;;;8.43;100.00;100453.31;6096146;23;20017;-74
2024/04/04 05:22:48;;;;;;;6.22;2.75;;;;;;;8.42;100.00;100449.84;6147255;23;20060;-74
2024/04/04 05:25:14;;;;;;;8.27;3.47;;;;;;;8.43;100.00;100456.78;6144849;23;20583;-74
2024/04/04 05:27:41;;;;;;;10.48;2.83;;;;;;;8.46;100.00;100453.56;6120052;23;20021;-74
2024/04/04 05:30:13;;;;;;;10.52;3.42;;;;;;;8.47;100.00;100460.53;6118704;23;20024;-75
2024/04/04 05:32:40;;;;;;;6.72;2.45;;;;;;;8.48;100.00;100451.47;6095590;23;20017;-74
2024/04/04 05:35:06;;;;;;;7.40;2.58;;;;;;;8.47;100.00;100457.88;6119540;23;20051;-74
2024/04/04 05:37:36;;;;;;;6.95;2.70;;;;;;;8.48;100.00;100454.13;6145969;23;20059;-74
2024/04/04 05:40:02;;;;;;;10.20;2.40;;;;;;;8.48;100.00;100456.00;6119302;23;20018;-75
2024/04/04 05:42:29;;;;;;;6.13;2.00;;;;;;;8.48;100.00;100454.13;6146966;23;20017;-75
2024/04/04 05:44:55;;;;;;;11.35;2.40;;;;;;;8.47;100.00;100457.06;6146265;23;20028;-74
2024/04/04 05:47:20;;;;;;;7.72;2.85;;;;;;;8.46;100.00;100453.56;6144552;23;20013;-72
2024/04/04 05:49:46;;;;;;;8.05;2.35;;;;;;;8.47;100.00;100457.88;6145099;23;20013;-75
2024/04/04 05:52:12;;;;;;;10.95;3.00;;;;;;;8.48;100.00;100456.81;6119760;23;20009;-73
2024/04/04 05:54:39;;;;;;;5.60;2.08;;;;;;;8.48;100.00;100456.81;6071207;23;20534;-73
2024/04/04 05:57:05;;;;;;;7.35;2.10;;;;;;;8.48;100.00;100451.47;6119629;23;20014;-73
2024/04/04 05:59:32;;;;;;;5.22;1.73;;;;;;;8.51;100.00;100462.69;6119849;23;20356;-75
2024/04/04 06:01:59;;;;;;;13.00;1.85;;;;;;;8.53;100.00;100472.00;6120228;23;20718;-73
2024/04/04 06:04:28;;;;;;;7.03;1.60;;;;;;;8.59;100.00;100462.16;6094493;23;20742;-73
2024/04/04 06:06:53;;;;;;;4.97;1.42;;;;;;;8.64;100.00;100459.50;6118549;23;20018;-73
2024/04/04 06:09:19;;;;;;;5.55;1.60;;;;;;;8.67;100.00;100467.81;6093937;23;21025;-74
2024/04/04 06:11:45;;;;;;;8.80;1.80;;;;;;;8.71;100.00;100463.53;6146461;23;20013;-75
2024/04/04 06:14:11;;;;;;;6.22;1.73;;;;;;;8.75;100.00;100469.97;6143681;23;20013;-74
2024/04/04 06:16:36;;;;;;;8.88;1.52;;;;;;;8.82;100.00;100460.91;6120173;23;20081;-73
2024/04/04 06:19:02;;;;;;;6.30;1.80;;;;;;;8.90;100.00;100463.03;6145146;23;20013;-74
2024/04/04 06:21:27;;;;;;;3.75;1.45;;;;;;;8.91;100.00;100457.44;6145646;23;20013;-75
2024/04/04 06:23:53;;;;;;;5.13;1.08;;;;;;;8.88;100.00;100451.81;6145614;23;20086;-73
2024/04/04 06:26:19;;;;;;;7.03;1.70;;;;;;;8.85;100.00;100463.81;6119134;23;20341;-74
2024/04/04 06:28:46;;;;;;;7.15;1.63;;;;;;;8.84;100.00;100454.22;6120211;23;20025;-73
2024/04/04 06:31:12;;;;;;;5.35;1.40;;;;;;;8.84;100.00;100462.22;6118447;23;20009;-72
2024/04/04 06:33:37;;;;;;;5.57;1.63;;;;;;;8.86;100.00;100459.28;6094803;23;20020;-74
2024/04/04 06:36:04;;;;;;;7.57;1.67;;;;;;;8.91;100.00;100441.41;6093119;23;20013;-73
2024/04/04 06:38:30;;;;;;;3.42;1.23;;;;;;;8.98;100.00;100435.81;6144862;23;20017;-72
2024/04/04 06:40:55;;;;;;;3.88;1.00;;;;;;;9.14;100.00;100441.94;6119281;23;20071;-73
2024/04/04 06:43:21;;;;;;;3.03;1.23;;;;;;;9.23;100.00;100448.38;6145099;23;20458;-73
2024/04/04 06:45:47;;;;;;;3.97;1.23;;;;;;;9.28;100.00;100435.03;6143132;23;20017;-72
2024/04/04 06:48:13;;;;;;;4.93;1.88;;;;;;;9.30;100.00;100432.88;6118886;23;20024;-72
2024/04/04 06:50:38;;;;;;;6.38;1.45;;;;;;;9.30;100.00;100427.53;6094733;23;20463;-73
2024/04/04 06:53:04;;;;;;;6.88;1.38;;;;;;;9.28;100.00;100424.34;6094239;23;20546;-73
2024/04/04 06:55:31;;;;;;;4.85;1.05;;;;;;;9.28;100.00;100430.47;6094147;23;20017;-75
2024/04/04 06:57:56;;;;;;;5.38;1.25;;;;;;;9.29;100.00;100431.28;6119371;23;20451;-74
2024/04/04 07:00:23;;;;;;;5.13;1.35;;;;;;;9.28;100.00;100435.03;6143441;23;20020;-75
2024/04/04 07:02:48;;;;;;;4.03;1.20;;;;;;;9.26;100.00;100435.25;6094446;23;20018;-73
2024/04/04 07:05:14;;;;;;;4.63;1.48;;;;;;;9.24;100.00;100431.28;6143509;23;20459;-73
2024/04/04 07:07:40;;;;;;;4.88;1.35;;;;;;;9.24;100.00;100431.28;6120099;23;20013;-73
2024/04/04 07:10:08;;;;;;;7.80;1.45;;;;;;;9.23;100.00;100427.00;6118380;23;20040;-73
2024/04/04 07:12:33;;;;;;;5.18;1.13;;;;;;;9.24;100.00;100426.72;6146219;23;20024;-73
2024/04/04 07:14:59;;;;;;;4.10;1.10;;;;;;;9.24;100.00;100417.91;6118954;23;20100;-72
2024/04/04 07:17:29;;;;;;;5.32;1.33;;;;;;;9.27;100.00;100428.03;6144998;23;20330;-74
2024/04/04 07:19:55;;;;;;;5.20;1.40;;;;;;;9.30;100.00;100422.19;6094296;23;20025;-74
2024/04/04 07:22:21;;;;;;;7.30;2.20;;;;;;;9.41;100.00;100423.75;6144162;23;20009;-73
2024/04/04 07:24:47;;;;;;;6.18;1.25;;;;;;;9.52;100.00;100413.88;6145583;23;20067;-73
2024/04/04 07:27:13;;;;;;;;;;;;;;;9.71;100.00;100403.41;6093937;23;20009;-73
2024/04/04 07:29:39;;;;;;;5.53;1.52;;;;;;;9.82;100.00;100418.31;6119048;23;19919;-72
2024/04/04 07:32:07;;;;;;;7.20;1.42;;;;;;;9.90;100.00;100415.13;6145427;23;20038;-74
2024/04/04 07:34:34;;;;;;;3.85;1.33;;;;;;;9.97;100.00;100396.91;6118979;23;20020;-74
2024/04/04 07:36:59;;;;;;;5.70;1.25;;;;;;;10.01;100.00;100405.97;6119816;23;20009;-73
2024/04/04 07:39:26;;;;;;;8.10;1.40;;;;;;;9.97;100.00;100404.91;6118761;23;20052;-74
2024/04/04 07:41:53;;;;;;;3.80;1.25;;;;;;;9.93;100.00;100406.53;6146341;23;20523;-73
2024/04/04 07:44:19;;;;;;;5.68;1.52;;;;;;;9.88;100.00;100403.06;6094307;23;20025;-73
2024/04/04 07:46:44;;;;;;;;;;;;;;;9.83;100.00;100403.91;6121220;23;20013;-73
2024/04/04 07:49:10;;;;;;;4.82;1.42;;;;;;;9.83;100.00;100398.56;6120112;23;19919;-74
2024/04/04 07:51:36;;;;;;;3.72;1.15;;;;;;;9.82;100.00;100402.28;6147289;23;20042;-73
2024/04/04 07:54:03;;;;;;;6.60;1.08;;;;;;;9.84;100.00;100389.44;6120635;23;20013;-73
2024/04/04 07:56:29;;;;;;;4.57;1.05;;;;;;;9.87;100.00;100386.22;6121742;23;20060;-72
2024/04/04 07:58:55;;;;;;;4.85;1.58;;;;;;;9.88;100.00;100381.66;6121474;23;20036;-72
2024/04/04 08:01:21;;;;;;;;;;;;;;;9.85;100.00;100386.50;6121158;23;20013;-73
2024/04/04 08:03:48;;;;;;;4.25;1.20;;;;;;;9.85;100.00;100385.69;6096768;23;20252;-73
2024/04/04 08:06:14;;;;;;;2.97;1.00;;;;;;;9.82;100.00;100396.94;6120522;23;20067;-72
2024/04/04 08:08:41;;;;;;;4.90;1.20;;;;;;;9.82;100.00;100383.56;6097410;23;20013;-73
2024/04/04 08:11:11;;;;;;;6.57;1.35;;;;;;;9.82;100.00;100379.03;6120396;23;20020;-72
2024/04/04 08:13:42;;;;;;;7.50;1.30;;;;;;;9.83;100.00;100377.16;6121867;23;20017;-73
2024/04/04 08:16:08;;;;;;;4.50;1.50;;;;;;;9.79;100.00;100371.53;6121170;23;20463;-73
2024/04/04 08:18:34;;;;;;;5.68;1.13;;;;;;;9.81;100.00;100372.06;6145926;23;20032;-73
2024/04/04 08:21:00;;;;;;;8.38;1.23;;;;;;;9.82;100.00;100373.69;6073345;23;20534;-73
2024/04/04 08:23:27;;;;;;;4.15;1.30;;;;;;;9.82;100.00;100376.34;6120251;23;20072;-76
2024/04/04 08:25:54;;;;;;;4.97;1.10;;;;;;;9.83;100.00;100377.16;6096790;23;20021;-73
2024/04/04 08:28:19;;;;;;;5.50;1.20;;;;;;;9.76;100.00;100376.66;6120206;23;20017;-72
2024/04/04 08:30:45;;;;;;;5.20;1.30;;;;;;;9.75;100.00;100380.38;6146538;23;20013;-73
2024/04/04 08:33:13;;;;;;;4.35;1.35;;;;;;;9.75;100.00;100377.69;6096217;23;20024;-74
2024/04/04 08:35:39;;;;;;;7.60;1.40;;;;;;;9.73;100.00;100358.47;6095786;23;20019;-72
2024/04/04 08:38:05;;;;;;;4.50;1.35;;;;;;;9.76;100.00;100357.94;6120502;23;20013;-73
2024/04/04 08:40:31;;;;;;;2.78;1.50;;;;;;;9.74;100.00;100349.34;6095490;23;20053;-73
2024/04/04 08:42:57;;;;;;;5.70;1.00;;;;;;;9.72;100.00;100343.50;6146945;23;20041;-72
2024/04/04 08:45:31;;;;;;;6.32;1.30;;;;;;;9.72;100.00;100349.63;6145939;23;20017;-73
2024/04/04 08:48:00;;;;;;;6.88;0.90;;;;;;;9.74;100.00;100347.47;6121332;23;20033;-72
2024/04/04 08:50:26;;;;;;;3.97;1.42;;;;;;;9.75;100.00;100340.25;6145765;23;20086;-73
2024/04/04 08:52:53;;;;;;;4.10;1.10;;;;;;;9.76;100.00;100339.22;6147131;23;20452;-73
2024/04/04 08:55:19;;;;;;;5.15;1.35;;;;;;;9.75;100.00;100333.03;6145303;23;20017;-74
2024/04/04 08:57:44;;;;;;;4.85;1.10;;;;;;;9.76;100.00;100328.50;6146263;23;20729;-73
2024/04/04 09:00:14;;;;;;;4.82;1.40;;;;;;;9.76;100.00;100325.84;6146049;23;20026;-73
2024/04/04 09:02:40;;;;;;;7.50;1.17;;;;;;;9.75;100.00;100332.25;6096127;23;20022;-73
2024/04/04 09:05:06;;;;;;;;;;;;;;;9.73;100.00;100329.84;6120599;23;20009;-73
2024/04/04 09:07:35;;;;;;;4.53;0.90;;;;;;;9.73;100.00;100323.69;6118640;23;20349;-73
2024/04/04 09:10:02;;;;;;;5.75;1.10;;;;;;;9.71;100.00;100321.31;6095593;23;20017;-74
2024/04/04 09:12:28;;;;;;;6.40;1.40;;;;;;;9.65;100.00;100317.03;6119883;23;20021;-74
2024/04/04 09:14:58;;;;;;;3.70;1.20;;;;;;;9.66;100.00;100315.16;6120566;23;20052;-75
2024/04/04 09:17:24;;;;;;;3.50;1.30;;;;;;;9.66;100.00;100310.63;6119258;23;20068;-73
2024/04/04 09:19:54;;;;;;;6.78;1.33;;;;;;;9.64;100.00;100314.66;6146817;23;20021;-73
2024/04/04 09:22:25;;;;;;;4.43;1.33;;;;;;;9.64;100.00;100314.66;6119549;23;20017;-72
2024/04/04 09:24:58;;;;;;;6.90;1.17;;;;;;;9.62;100.00;100303.41;6146510;23;20017;-75
2024/04/04 09:27:23;;;;;;;4.50;1.48;;;;;;;9.56;100.00;100298.09;6094869;23;20017;-74
2024/04/04 09:29:51;;;;;;;4.07;1.10;;;;;;;9.57;100.00;100309.59;6120305;23;20104;-75
2024/04/04 09:32:19;;;;;;;6.18;1.60;;;;;;;9.57;100.00;100301.56;6119691;23;20022;-75
2024/04/04 09:34:46;;;;;;;6.85;1.25;;;;;;;9.52;100.00;100299.72;6119619;23;20028;-74
2024/04/04 09:37:15;;;;;;;6.18;1.55;;;;;;;9.55;100.00;100290.34;6071200;23;20100;-74
2024/04/04 09:39:41;;;;;;;5.20;1.20;;;;;;;9.47;100.00;100294.38;6147014;23;20794;-72
2024/04/04 09:42:08;;;;;;;10.30;1.67;;;;;;;9.44;100.00;100289.59;6120611;23;20097;-73
2024/04/04 09:44:34;;;;;;;3.90;1.15;;;;;;;9.47;100.00;100293.59;6145570;23;20727;-73
2024/04/04 09:47:03;;;;;;;5.72;1.60;;;;;;;9.48;100.00;100279.97;6119803;23;20044;-73
2024/04/04 09:49:31;;;;;;;5.32;1.38;;;;;;;9.49;100.00;100276.22;6094947;23;20013;-72
2024/04/04 09:51:59;;;;;;;7.15;1.42;;;;;;;9.49;100.00;100268.19;6120405;23;20013;-73
2024/04/04 09:54:26;;;;;;;6.10;1.40;;;;;;;9.43;100.00;100268.50;6093191;23;20021;-74
2024/04/04 09:56:52;;;;;;;;;;;;;;;9.38;100.00;100271.97;6095960;23;20012;-73
2024/04/04 09:59:29;;;;;;;6.30;1.38;;;;;;;9.36;100.00;100266.09;6118985;23;19916;-73
2024/04/04 10:02:02;;;;;;;6.78;1.17;;;;;;;9.39;100.00;100275.44;6120043;23;20014;-72
2024/04/04 10:04:37;;;;;;;7.30;1.88;;;;;;;9.41;100.00;100268.75;6144583;23;20104;-73
2024/04/04 10:07:04;;;;;;;5.30;1.35;;;;;;;9.39;100.00;100268.22;6118916;23;20407;-73
2024/04/04 10:09:38;;;;;;;6.55;1.67;;;;;;;9.41;100.00;100262.59;6093419;23;20045;-73
2024/04/04 10:12:14;;;;;;;3.00;1.27;;;;;;;9.41;100.00;100267.94;6120560;23;20092;-75
2024/04/04 10:14:50;;;;;;;4.68;1.25;;;;;;;9.44;100.00;100262.06;6119117;23;20024;-75
2024/04/04 10:17:16;;;;;;;6.57;1.55;;;;;;;9.44;100.00;100262.88;6117872;23;20020;-74
2024/04/04 10:19:45;;;;;;;8.50;1.50;;;;;;;9.44;100.00;100267.41;6119732;23;20013;-74
2024/04/04 10:22:17;;;;;;;3.63;1.40;;;;;;;9.46;100.00;100247.34;6119193;23;20022;-74
2024/04/04 10:24:43;;;;;;;8.27;1.58;;;;;;;9.48;100.00;100253.25;6119485;23;20101;-74
2024/04/04 10:27:12;;;;;;;5.07;1.92;;;;;;;9.47;100.00;100245.47;6094639;23;20408;-74
2024/04/04 10:29:38;;;;;;;4.13;1.50;;;;;;;9.52;100.00;100248.13;6119604;23;20096;-75
2024/04/04 10:32:05;;;;;;;3.92;1.20;;;;;;;9.52;100.00;100234.75;6095662;23;20013;-74
2024/04/04 10:34:33;;;;;;;9.07;1.92;;;;;;;9.55;100.00;100240.38;6144492;23;20342;-74
2024/04/04 10:36:58;;;;;;;5.43;1.42;;;;;;;9.58;100.00;100223.78;6146286;23;20440;-73
2024/04/04 10:39:24;;;;;;;5.38;1.70;;;;;;;9.59;100.00;100227.25;6118673;23;20104;-75
2024/04/04 10:41:52;;;;;;;3.00;1.00;;;;;;;9.63;100.00;100219.47;6144620;23;20092;-73
2024/04/04 10:44:19;;;;;;;2.30;1.20;;;;;;;9.65;100.00;100214.66;6093704;23;20009;-72
2024/04/04 10:46:53;;;;;;;4.22;1.42;;;;;;;9.64;100.00;100221.06;6118803;23;20550;-74
2024/04/04 10:49:21;;;;;;;2.63;1.25;;;;;;;9.64;100.00;100213.84;6144107;23;20013;-72
2024/04/04 10:51:51;;;;;;;3.33;1.20;;;;;;;9.69;100.00;100213.03;6144408;23;20815;-72
2024/04/04 10:54:21;;;;;;;2.22;1.10;;;;;;;9.71;100.00;100219.69;6092884;23;20048;-75
2024/04/04 10:56:47;;;;;;;5.38;1.40;;;;;;;9.69;100.00;100213.84;6118953;23;20033;-72
2024/04/04 10:59:17;;;;;;;2.85;1.15;;;;;;;9.75;100.00;100209.22;6144768;23;20020;-74
2024/04/04 11:01:55;;;;;;;4.10;1.23;;;;;;;9.74;100.00;100202.28;6143350;23;20029;-74
2024/04/04 11:04:21;;;;;;;2.38;1.17;;;;;;;9.75;100.00;100202.00;6144764;23;20021;-72
2024/04/04 11:06:47;;;;;;;;;;;;;;;9.77;100.00;100193.72;6095077;23;20014;-73
2024/04/04 11:09:15;;;;;;;5.18;1.10;;;;;;;9.77;100.00;100205.22;6096172;23;19991;-72
2024/04/04 11:11:43;;;;;;;2.40;0.90;;;;;;;9.78;100.00;100201.47;6120055;23;20014;-73
2024/04/04 11:14:11;;;;;;;5.32;1.50;;;;;;;9.81;100.00;100197.44;6142679;23;20009;-73
2024/04/04 11:16:38;;;;;;;4.57;1.52;;;;;;;9.87;100.00;100195.53;6118736;23;20009;-73
2024/04/04 11:19:08;;;;;;;3.03;1.15;;;;;;;9.90;100.00;100179.72;6121528;23;20017;-73
2024/04/04 11:21:35;;;;;;;2.20;1.17;;;;;;;9.95;100.00;100186.91;6072177;23;20021;-71
2024/04/04 11:24:01;;;;;;;2.67;1.10;;;;;;;9.95;100.00;100187.69;6147062;23;20018;-74